sensor_id;sensor_type;location;lat;lon;timestamp;pressure;altitude;pressure_sealevel;temperature;humidity
33795;BME280;51430;52.242;21.118;2023-01-23T00:02:28;102102.66;;;2.48;99.99
33795;BME280;51430;52.242;21.118;2023-01-23T00:05:14;102106.08;;;2.51;99.85
33795;BME280;51430;52.242;21.118;2023-01-23T00:08:01;102112.77;;;2.52;99.97
33795;BME280;51430;52.242;21.118;2023-01-23T00:10:48;102111.75;;;2.52;99.96
33795;BME280;51430;52.242;21.118;2023-01-23T00:13:35;102111.21;;;2.52;100.00
33795;BME280;51430;52.242;21.118;2023-01-23T00:16:24;102111.20;;;2.53;100.00
33795;BME280;51430;52.242;21.118;2023-01-23T00:19:11;102110.20;;;2.51;100.00
33795;BME280;51430;52.242;21.118;2023-01-23T00:21:59;102113.47;;;2.51;100.00
33795;BME280;51430;52.242;21.118;2023-01-23T00:24:46;102114.35;;;2.50;100.00
33795;BME280;51430;52.242;21.118;2023-01-23T00:27:33;102120.27;;;2.46;100.00
33795;BME280;51430;52.242;21.118;2023-01-23T00:30:20;102125.09;;;2.45;100.00
33795;BME280;51430;52.242;21.118;2023-01-23T00:33:07;102123.34;;;2.47;99.96
33795;BME280;51430;52.242;21.118;2023-01-23T00:35:54;102126.60;;;2.48;99.99
33795;BME280;51430;52.242;21.118;2023-01-23T00:38:40;102126.30;;;2.45;100.00
33795;BME280;51430;52.242;21.118;2023-01-23T00:41:30;102129.20;;;2.46;100.00
33795;BME280;51430;52.242;21.118;2023-01-23T00:44:18;102129.72;;;2.47;100.00
33795;BME280;51430;52.242;21.118;2023-01-23T00:47:05;102126.29;;;2.46;100.00
33795;BME280;51430;52.242;21.118;2023-01-23T00:49:52;102126.47;;;2.45;100.00
33795;BME280;51430;52.242;21.118;2023-01-23T00:52:44;102120.89;;;2.38;100.00
33795;BME280;51430;52.242;21.118;2023-01-23T00:55:32;102123.48;;;2.37;100.00
33795;BME280;51430;52.242;21.118;2023-01-23T00:58:19;102124.33;;;2.39;100.00
33795;BME280;51430;52.242;21.118;2023-01-23T01:01:07;102120.98;;;2.44;100.00
33795;BME280;51430;52.242;21.118;2023-01-23T01:03:53;102123.36;;;2.45;100.00
33795;BME280;51430;52.242;21.118;2023-01-23T01:06:40;102121.42;;;2.38;100.00
33795;BME280;51430;52.242;21.118;2023-01-23T01:09:27;102120.34;;;2.40;100.00
33795;BME280;51430;52.242;21.118;2023-01-23T01:12:14;102124.89;;;2.34;100.00
33795;BME280;51430;52.242;21.118;2023-01-23T01:15:02;102126.23;;;2.36;100.00
33795;BME280;51430;52.242;21.118;2023-01-23T01:17:49;102129.98;;;2.41;100.00
33795;BME280;51430;52.242;21.118;2023-01-23T01:20:43;102133.06;;;2.41;100.00
33795;BME280;51430;52.242;21.118;2023-01-23T01:23:29;102131.69;;;2.40;100.00
33795;BME280;51430;52.242;21.118;2023-01-23T01:26:16;102137.92;;;2.38;100.00
33795;BME280;51430;52.242;21.118;2023-01-23T01:29:03;102142.64;;;2.33;100.00
33795;BME280;51430;52.242;21.118;2023-01-23T01:31:50;102145.30;;;2.39;100.00
33795;BME280;51430;52.242;21.118;2023-01-23T01:34:37;102148.10;;;2.36;100.00
33795;BME280;51430;52.242;21.118;2023-01-23T01:37:24;102149.08;;;2.40;100.00
33795;BME280;51430;52.242;21.118;2023-01-23T01:40:14;102155.13;;;2.39;100.00
33795;BME280;51430;52.242;21.118;2023-01-23T01:43:05;102156.69;;;2.38;100.00
33795;BME280;51430;52.242;21.118;2023-01-23T01:46:21;102156.48;;;2.39;100.00
33795;BME280;51430;52.242;21.118;2023-01-23T01:49:20;102155.23;;;2.43;100.00
33795;BME280;51430;52.242;21.118;2023-01-23T01:52:11;102157.16;;;2.41;100.00
33795;BME280;51430;52.242;21.118;2023-01-23T01:55:04;102161.73;;;2.46;100.00
33795;BME280;51430;52.242;21.118;2023-01-23T01:57:51;102162.90;;;2.48;100.00
33795;BME280;51430;52.242;21.118;2023-01-23T02:00:39;102163.51;;;2.55;100.00
33795;BME280;51430;52.242;21.118;2023-01-23T02:03:26;102164.63;;;2.48;100.00
33795;BME280;51430;52.242;21.118;2023-01-23T02:06:13;102170.32;;;2.47;100.00
33795;BME280;51430;52.242;21.118;2023-01-23T02:11:48;102181.10;;;2.53;100.00
33795;BME280;51430;52.242;21.118;2023-01-23T02:14:35;102182.95;;;2.55;100.00
33795;BME280;51430;52.242;21.118;2023-01-23T02:17:22;102185.59;;;2.52;100.00
33795;BME280;51430;52.242;21.118;2023-01-23T02:20:24;102189.08;;;2.47;100.00
33795;BME280;51430;52.242;21.118;2023-01-23T02:26:04;102188.59;;;2.45;100.00
33795;BME280;51430;52.242;21.118;2023-01-23T02:28:53;102190.54;;;2.42;100.00
33795;BME280;51430;52.242;21.118;2023-01-23T02:31:40;102189.65;;;2.44;100.00
33795;BME280;51430;52.242;21.118;2023-01-23T02:34:31;102189.07;;;2.48;100.00
33795;BME280;51430;52.242;21.118;2023-01-23T02:37:20;102188.16;;;2.52;100.00
33795;BME280;51430;52.242;21.118;2023-01-23T02:40:08;102185.23;;;2.51;100.00
33795;BME280;51430;52.242;21.118;2023-01-23T02:42:55;102189.35;;;2.53;100.00
33795;BME280;51430;52.242;21.118;2023-01-23T02:45:42;102189.88;;;2.53;100.00
33795;BME280;51430;52.242;21.118;2023-01-23T02:48:30;102185.74;;;2.52;100.00
33795;BME280;51430;52.242;21.118;2023-01-23T02:51:17;102185.98;;;2.47;100.00
33795;BME280;51430;52.242;21.118;2023-01-23T02:54:06;102188.02;;;2.49;100.00
33795;BME280;51430;52.242;21.118;2023-01-23T02:56:53;102193.50;;;2.51;100.00
33795;BME280;51430;52.242;21.118;2023-01-23T02:59:40;102199.16;;;2.54;100.00
33795;BME280;51430;52.242;21.118;2023-01-23T03:02:49;102201.11;;;2.49;100.00
33795;BME280;51430;52.242;21.118;2023-01-23T03:05:36;102198.52;;;2.50;100.00
33795;BME280;51430;52.242;21.118;2023-01-23T03:08:22;102196.41;;;2.52;100.00
33795;BME280;51430;52.242;21.118;2023-01-23T03:11:09;102198.16;;;2.51;100.00
33795;BME280;51430;52.242;21.118;2023-01-23T03:13:57;102197.02;;;2.46;100.00
33795;BME280;51430;52.242;21.118;2023-01-23T03:16:44;102196.16;;;2.45;100.00
33795;BME280;51430;52.242;21.118;2023-01-23T03:19:36;102192.23;;;2.43;100.00
33795;BME280;51430;52.242;21.118;2023-01-23T03:22:24;102194.30;;;2.44;100.00
33795;BME280;51430;52.242;21.118;2023-01-23T03:25:12;102198.89;;;2.47;100.00
33795;BME280;51430;52.242;21.118;2023-01-23T03:28:00;102202.82;;;2.49;100.00
33795;BME280;51430;52.242;21.118;2023-01-23T03:30:47;102200.91;;;2.51;100.00
33795;BME280;51430;52.242;21.118;2023-01-23T03:33:34;102202.30;;;2.51;100.00
33795;BME280;51430;52.242;21.118;2023-01-23T03:36:21;102199.88;;;2.51;100.00
33795;BME280;51430;52.242;21.118;2023-01-23T03:39:08;102201.14;;;2.46;100.00
33795;BME280;51430;52.242;21.118;2023-01-23T03:42:13;102199.66;;;2.40;100.00
33795;BME280;51430;52.242;21.118;2023-01-23T03:45:00;102201.72;;;2.42;100.00
33795;BME280;51430;52.242;21.118;2023-01-23T03:47:47;102203.45;;;2.41;100.00
33795;BME280;51430;52.242;21.118;2023-01-23T03:50:34;102208.95;;;2.41;100.00
33795;BME280;51430;52.242;21.118;2023-01-23T03:53:21;102212.23;;;2.40;100.00
33795;BME280;51430;52.242;21.118;2023-01-23T03:56:09;102218.95;;;2.40;100.00
33795;BME280;51430;52.242;21.118;2023-01-23T03:58:55;102221.88;;;2.41;100.00
33795;BME280;51430;52.242;21.118;2023-01-23T04:01:43;102225.88;;;2.36;100.00
33795;BME280;51430;52.242;21.118;2023-01-23T04:04:33;102224.64;;;2.38;100.00
33795;BME280;51430;52.242;21.118;2023-01-23T04:07:20;102220.11;;;2.43;100.00
33795;BME280;51430;52.242;21.118;2023-01-23T04:10:08;102222.64;;;2.47;100.00
33795;BME280;51430;52.242;21.118;2023-01-23T04:12:58;102224.38;;;2.46;100.00
33795;BME280;51430;52.242;21.118;2023-01-23T04:15:45;102227.13;;;2.46;100.00
33795;BME280;51430;52.242;21.118;2023-01-23T04:18:32;102230.55;;;2.48;100.00
33795;BME280;51430;52.242;21.118;2023-01-23T04:21:19;102227.65;;;2.46;100.00
33795;BME280;51430;52.242;21.118;2023-01-23T04:24:06;102230.25;;;2.45;100.00
33795;BME280;51430;52.242;21.118;2023-01-23T04:26:53;102225.93;;;2.46;100.00
33795;BME280;51430;52.242;21.118;2023-01-23T04:29:40;102234.61;;;2.39;100.00
33795;BME280;51430;52.242;21.118;2023-01-23T04:32:27;102240.32;;;2.37;100.00
33795;BME280;51430;52.242;21.118;2023-01-23T04:35:13;102241.17;;;2.38;100.00
33795;BME280;51430;52.242;21.118;2023-01-23T04:38:00;102241.15;;;2.40;100.00
33795;BME280;51430;52.242;21.118;2023-01-23T04:40:47;102245.75;;;2.44;100.00
33795;BME280;51430;52.242;21.118;2023-01-23T04:43:33;102256.39;;;2.47;100.00
33795;BME280;51430;52.242;21.118;2023-01-23T04:46:21;102253.11;;;2.46;100.00
33795;BME280;51430;52.242;21.118;2023-01-23T04:49:08;102249.87;;;2.44;100.00
33795;BME280;51430;52.242;21.118;2023-01-23T04:51:56;102255.77;;;2.41;100.00
33795;BME280;51430;52.242;21.118;2023-01-23T04:54:42;102249.92;;;2.40;100.00
33795;BME280;51430;52.242;21.118;2023-01-23T04:57:29;102248.70;;;2.42;100.00
33795;BME280;51430;52.242;21.118;2023-01-23T05:00:16;102251.95;;;2.43;100.00
33795;BME280;51430;52.242;21.118;2023-01-23T05:03:04;102253.29;;;2.47;100.00
33795;BME280;51430;52.242;21.118;2023-01-23T05:09:11;102258.46;;;2.46;100.00
33795;BME280;51430;52.242;21.118;2023-01-23T05:11:59;102258.67;;;2.27;100.00
33795;BME280;51430;52.242;21.118;2023-01-23T05:14:46;102264.64;;;2.32;100.00
33795;BME280;51430;52.242;21.118;2023-01-23T05:17:33;102272.35;;;2.34;100.00
33795;BME280;51430;52.242;21.118;2023-01-23T05:20:20;102267.90;;;2.33;100.00
33795;BME280;51430;52.242;21.118;2023-01-23T05:23:09;102263.87;;;2.40;100.00
33795;BME280;51430;52.242;21.118;2023-01-23T05:25:56;102265.09;;;2.39;100.00
33795;BME280;51430;52.242;21.118;2023-01-23T05:28:43;102264.78;;;2.35;100.00
33795;BME280;51430;52.242;21.118;2023-01-23T05:31:30;102264.61;;;2.35;100.00
33795;BME280;51430;52.242;21.118;2023-01-23T05:34:17;102266.29;;;2.39;100.00
33795;BME280;51430;52.242;21.118;2023-01-23T05:37:04;102275.79;;;2.36;100.00
33795;BME280;51430;52.242;21.118;2023-01-23T05:39:50;102275.44;;;2.36;100.00
33795;BME280;51430;52.242;21.118;2023-01-23T05:42:37;102278.54;;;2.36;100.00
33795;BME280;51430;52.242;21.118;2023-01-23T05:45:24;102280.98;;;2.33;100.00
33795;BME280;51430;52.242;21.118;2023-01-23T05:48:10;102288.40;;;2.31;100.00
33795;BME280;51430;52.242;21.118;2023-01-23T05:50:57;102295.12;;;2.29;100.00
33795;BME280;51430;52.242;21.118;2023-01-23T05:53:44;102296.98;;;2.33;100.00
33795;BME280;51430;52.242;21.118;2023-01-23T05:56:32;102299.38;;;2.33;100.00
33795;BME280;51430;52.242;21.118;2023-01-23T05:59:19;102303.84;;;2.36;100.00
33795;BME280;51430;52.242;21.118;2023-01-23T06:02:06;102306.62;;;2.33;100.00
33795;BME280;51430;52.242;21.118;2023-01-23T06:04:56;102308.69;;;2.33;100.00
33795;BME280;51430;52.242;21.118;2023-01-23T06:07:43;102306.69;;;2.27;100.00
33795;BME280;51430;52.242;21.118;2023-01-23T06:10:30;102317.48;;;2.29;100.00
33795;BME280;51430;52.242;21.118;2023-01-23T06:13:17;102323.35;;;2.29;100.00
33795;BME280;51430;52.242;21.118;2023-01-23T06:16:05;102324.02;;;2.29;100.00
33795;BME280;51430;52.242;21.118;2023-01-23T06:18:53;102324.70;;;2.31;100.00
33795;BME280;51430;52.242;21.118;2023-01-23T06:21:40;102328.66;;;2.31;100.00
33795;BME280;51430;52.242;21.118;2023-01-23T06:24:28;102330.89;;;2.32;100.00
33795;BME280;51430;52.242;21.118;2023-01-23T06:27:16;102336.77;;;2.29;100.00
33795;BME280;51430;52.242;21.118;2023-01-23T06:30:03;102338.41;;;2.37;100.00
33795;BME280;51430;52.242;21.118;2023-01-23T06:32:50;102344.21;;;2.41;100.00
33795;BME280;51430;52.242;21.118;2023-01-23T06:46:27;102383.88;;;2.33;100.00
33795;BME280;51430;52.242;21.118;2023-01-23T06:49:14;102385.98;;;2.28;100.00
33795;BME280;51430;52.242;21.118;2023-01-23T06:52:00;102389.49;;;2.41;100.00
33795;BME280;51430;52.242;21.118;2023-01-23T06:54:47;102390.62;;;2.47;100.00
33795;BME280;51430;52.242;21.118;2023-01-23T06:57:34;102392.68;;;2.49;100.00
33795;BME280;51430;52.242;21.118;2023-01-23T07:00:21;102395.56;;;2.52;100.00
33795;BME280;51430;52.242;21.118;2023-01-23T07:03:09;102392.21;;;2.60;100.00
33795;BME280;51430;52.242;21.118;2023-01-23T07:06:01;102393.02;;;2.65;100.00
33795;BME280;51430;52.242;21.118;2023-01-23T07:08:47;102395.59;;;2.66;100.00
33795;BME280;51430;52.242;21.118;2023-01-23T07:11:35;102392.03;;;2.61;100.00
33795;BME280;51430;52.242;21.118;2023-01-23T07:14:22;102391.16;;;2.61;100.00
33795;BME280;51430;52.242;21.118;2023-01-23T07:17:12;102394.77;;;2.61;99.95
33795;BME280;51430;52.242;21.118;2023-01-23T07:19:59;102396.35;;;2.59;100.00
33795;BME280;51430;52.242;21.118;2023-01-23T07:22:45;102399.98;;;2.57;100.00
33795;BME280;51430;52.242;21.118;2023-01-23T07:25:32;102403.70;;;2.64;100.00
33795;BME280;51430;52.242;21.118;2023-01-23T07:28:21;102410.21;;;2.67;99.98
33795;BME280;51430;52.242;21.118;2023-01-23T07:31:07;102415.09;;;2.62;99.89
33795;BME280;51430;52.242;21.118;2023-01-23T07:33:59;102415.42;;;2.63;99.88
33795;BME280;51430;52.242;21.118;2023-01-23T07:36:47;102414.64;;;2.72;99.88
33795;BME280;51430;52.242;21.118;2023-01-23T07:39:34;102414.95;;;2.74;99.75
33795;BME280;51430;52.242;21.118;2023-01-23T07:42:21;102412.68;;;2.78;99.62
33795;BME280;51430;52.242;21.118;2023-01-23T07:45:09;102413.52;;;2.81;99.57
33795;BME280;51430;52.242;21.118;2023-01-23T07:47:56;102414.00;;;2.84;99.32
33795;BME280;51430;52.242;21.118;2023-01-23T07:50:45;102413.66;;;2.83;99.30
33795;BME280;51430;52.242;21.118;2023-01-23T07:53:32;102411.42;;;2.83;99.17
33795;BME280;51430;52.242;21.118;2023-01-23T07:56:22;102413.98;;;2.85;99.12
33795;BME280;51430;52.242;21.118;2023-01-23T07:59:11;102414.56;;;2.80;99.12
33795;BME280;51430;52.242;21.118;2023-01-23T08:01:58;102420.73;;;2.83;99.09
33795;BME280;51430;52.242;21.118;2023-01-23T08:04:46;102422.37;;;2.89;98.94
33795;BME280;51430;52.242;21.118;2023-01-23T08:07:33;102428.77;;;2.87;98.83
33795;BME280;51430;52.242;21.118;2023-01-23T08:10:20;102432.36;;;2.90;98.84
33795;BME280;51430;52.242;21.118;2023-01-23T08:13:07;102425.95;;;2.93;98.68
33795;BME280;51430;52.242;21.118;2023-01-23T08:15:56;102430.59;;;2.95;98.58
33795;BME280;51430;52.242;21.118;2023-01-23T08:18:43;102432.86;;;2.92;98.43
33795;BME280;51430;52.242;21.118;2023-01-23T08:21:30;102433.06;;;2.89;98.28
33795;BME280;51430;52.242;21.118;2023-01-23T08:24:16;102436.16;;;2.90;98.28
33795;BME280;51430;52.242;21.118;2023-01-23T08:27:04;102437.55;;;2.88;98.15
33795;BME280;51430;52.242;21.118;2023-01-23T08:29:51;102442.24;;;2.84;98.27
33795;BME280;51430;52.242;21.118;2023-01-23T08:32:37;102442.40;;;2.85;98.55
33795;BME280;51430;52.242;21.118;2023-01-23T08:35:24;102445.69;;;2.83;98.41
33795;BME280;51430;52.242;21.118;2023-01-23T08:38:12;102447.05;;;2.85;98.52
33795;BME280;51430;52.242;21.118;2023-01-23T08:41:01;102452.68;;;2.90;98.44
33795;BME280;51430;52.242;21.118;2023-01-23T08:43:49;102454.36;;;2.94;98.36
33795;BME280;51430;52.242;21.118;2023-01-23T08:46:36;102456.02;;;3.00;98.26
33795;BME280;51430;52.242;21.118;2023-01-23T08:49:23;102464.74;;;3.05;98.31
33795;BME280;51430;52.242;21.118;2023-01-23T08:52:11;102472.10;;;3.11;98.31
33795;BME280;51430;52.242;21.118;2023-01-23T08:54:58;102475.90;;;3.11;98.06
33795;BME280;51430;52.242;21.118;2023-01-23T08:57:45;102476.40;;;3.11;98.00
33795;BME280;51430;52.242;21.118;2023-01-23T09:00:32;102477.60;;;3.12;98.03
33795;BME280;51430;52.242;21.118;2023-01-23T09:03:19;102479.64;;;3.16;97.78
33795;BME280;51430;52.242;21.118;2023-01-23T09:06:06;102477.68;;;3.20;97.82
33795;BME280;51430;52.242;21.118;2023-01-23T09:08:53;102477.84;;;3.21;97.67
33795;BME280;51430;52.242;21.118;2023-01-23T09:11:40;102473.39;;;3.19;97.58
33795;BME280;51430;52.242;21.118;2023-01-23T09:14:27;102472.19;;;3.19;97.69
33795;BME280;51430;52.242;21.118;2023-01-23T09:17:14;102473.02;;;3.21;97.73
33795;BME280;51430;52.242;21.118;2023-01-23T09:20:04;102470.73;;;3.23;97.63
33795;BME280;51430;52.242;21.118;2023-01-23T09:22:52;102472.20;;;3.31;97.60
33795;BME280;51430;52.242;21.118;2023-01-23T09:25:39;102470.29;;;3.32;97.51
33795;BME280;51430;52.242;21.118;2023-01-23T09:28:26;102469.27;;;3.32;97.41
33795;BME280;51430;52.242;21.118;2023-01-23T09:31:13;102467.58;;;3.29;97.29
33795;BME280;51430;52.242;21.118;2023-01-23T09:34:00;102468.02;;;3.35;97.44
33795;BME280;51430;52.242;21.118;2023-01-23T09:36:49;102464.02;;;3.38;97.25
33795;BME280;51430;52.242;21.118;2023-01-23T09:39:37;102461.27;;;3.37;97.04
33795;BME280;51430;52.242;21.118;2023-01-23T09:42:31;102459.38;;;3.36;97.12
33795;BME280;51430;52.242;21.118;2023-01-23T09:45:23;102458.71;;;3.35;97.02
33795;BME280;51430;52.242;21.118;2023-01-23T09:51:28;102458.89;;;3.34;97.16
33795;BME280;51430;52.242;21.118;2023-01-23T09:57:29;102454.21;;;3.36;97.02
33795;BME280;51430;52.242;21.118;2023-01-23T10:04:36;102449.90;;;3.36;97.39
33795;BME280;51430;52.242;21.118;2023-01-23T10:07:26;102451.44;;;3.51;97.55
33795;BME280;51430;52.242;21.118;2023-01-23T10:10:39;102451.61;;;3.52;97.18
33795;BME280;51430;52.242;21.118;2023-01-23T10:16:52;102456.75;;;3.54;97.06
33795;BME280;51430;52.242;21.118;2023-01-23T10:27:22;102458.27;;;3.57;96.69
33795;BME280;51430;52.242;21.118;2023-01-23T10:33:17;102453.05;;;3.60;96.47
33795;BME280;51430;52.242;21.118;2023-01-23T10:36:26;102455.95;;;3.62;96.21
33795;BME280;51430;52.242;21.118;2023-01-23T10:39:53;102453.00;;;3.64;96.20
33795;BME280;51430;52.242;21.118;2023-01-23T10:42:45;102447.34;;;3.74;96.29
33795;BME280;51430;52.242;21.118;2023-01-23T10:45:32;102446.58;;;3.79;96.05
33795;BME280;51430;52.242;21.118;2023-01-23T10:51:45;102447.64;;;3.89;95.42
33795;BME280;51430;52.242;21.118;2023-01-23T10:54:44;102446.20;;;3.92;95.41
33795;BME280;51430;52.242;21.118;2023-01-23T10:57:44;102446.54;;;3.92;94.79
33795;BME280;51430;52.242;21.118;2023-01-23T11:00:38;102445.79;;;3.97;94.79
33795;BME280;51430;52.242;21.118;2023-01-23T11:03:32;102447.14;;;3.99;94.65
33795;BME280;51430;52.242;21.118;2023-01-23T11:12:37;102440.21;;;3.78;94.48
33795;BME280;51430;52.242;21.118;2023-01-23T11:15:37;102438.54;;;3.85;94.60
33795;BME280;51430;52.242;21.118;2023-01-23T11:18:34;102442.27;;;3.89;94.36
33795;BME280;51430;52.242;21.118;2023-01-23T11:21:29;102441.92;;;3.90;94.16
33795;BME280;51430;52.242;21.118;2023-01-23T11:27:27;102441.98;;;3.87;94.09
33795;BME280;51430;52.242;21.118;2023-01-23T11:39:40;102436.61;;;3.76;94.46
33795;BME280;51430;52.242;21.118;2023-01-23T11:42:29;102433.27;;;3.80;94.73
33795;BME280;51430;52.242;21.118;2023-01-23T11:45:32;102423.52;;;3.87;94.73
33795;BME280;51430;52.242;21.118;2023-01-23T11:48:59;102421.61;;;3.87;94.52
33795;BME280;51430;52.242;21.118;2023-01-23T11:52:17;102419.54;;;3.76;94.45
33795;BME280;51430;52.242;21.118;2023-01-23T11:55:16;102414.13;;;3.68;94.76
33795;BME280;51430;52.242;21.118;2023-01-23T12:08:18;102412.35;;;3.84;94.36
33795;BME280;51430;52.242;21.118;2023-01-23T12:11:16;102412.88;;;3.83;94.29
33795;BME280;51430;52.242;21.118;2023-01-23T12:28:49;102433.20;;;3.96;94.60
33795;BME280;51430;52.242;21.118;2023-01-23T12:35:38;102438.05;;;3.95;94.55
33795;BME280;51430;52.242;21.118;2023-01-23T12:39:08;102432.79;;;4.01;94.35
33795;BME280;51430;52.242;21.118;2023-01-23T12:42:23;102434.25;;;3.95;94.19
33795;BME280;51430;52.242;21.118;2023-01-23T12:45:17;102437.81;;;3.88;94.59
33795;BME280;51430;52.242;21.118;2023-01-23T12:51:07;102437.29;;;4.00;94.14
33795;BME280;51430;52.242;21.118;2023-01-23T12:53:57;102438.48;;;4.01;94.00
33795;BME280;51430;52.242;21.118;2023-01-23T12:56:46;102440.36;;;4.03;93.64
33795;BME280;51430;52.242;21.118;2023-01-23T12:59:59;102442.62;;;4.01;93.38
33795;BME280;51430;52.242;21.118;2023-01-23T13:03:20;102447.77;;;3.91;93.18
33795;BME280;51430;52.242;21.118;2023-01-23T13:06:44;102452.36;;;3.84;93.34
33795;BME280;51430;52.242;21.118;2023-01-23T13:09:49;102454.89;;;3.77;93.67
33795;BME280;51430;52.242;21.118;2023-01-23T13:12:42;102457.71;;;3.84;93.67
33795;BME280;51430;52.242;21.118;2023-01-23T13:15:33;102459.48;;;3.82;93.46
33795;BME280;51430;52.242;21.118;2023-01-23T13:18:26;102460.36;;;3.80;93.53
33795;BME280;51430;52.242;21.118;2023-01-23T13:21:31;102467.67;;;3.75;93.46
33795;BME280;51430;52.242;21.118;2023-01-23T13:41:30;102471.51;;;3.60;94.47
33795;BME280;51430;52.242;21.118;2023-01-23T13:48:57;102477.98;;;3.52;94.76
33795;BME280;51430;52.242;21.118;2023-01-23T13:52:36;102478.20;;;3.49;94.97
33795;BME280;51430;52.242;21.118;2023-01-23T14:07:42;102483.48;;;3.67;94.45
33795;BME280;51430;52.242;21.118;2023-01-23T14:11:13;102487.36;;;3.45;94.79
33795;BME280;51430;52.242;21.118;2023-01-23T14:20:05;102496.80;;;3.20;95.83
33795;BME280;51430;52.242;21.118;2023-01-23T14:23:37;102496.38;;;3.13;96.08
33795;BME280;51430;52.242;21.118;2023-01-23T14:30:38;102501.90;;;3.27;95.85
33795;BME280;51430;52.242;21.118;2023-01-23T14:34:03;102500.10;;;3.34;95.90
33795;BME280;51430;52.242;21.118;2023-01-23T14:38:31;102496.86;;;3.30;96.11
33795;BME280;51430;52.242;21.118;2023-01-23T14:41:48;102499.55;;;3.21;96.45
33795;BME280;51430;52.242;21.118;2023-01-23T14:45:22;102495.19;;;3.11;96.49
33795;BME280;51430;52.242;21.118;2023-01-23T14:49:29;102494.54;;;3.07;96.77
33795;BME280;51430;52.242;21.118;2023-01-23T14:53:05;102494.77;;;3.01;96.85
33795;BME280;51430;52.242;21.118;2023-01-23T14:57:04;102496.16;;;3.00;97.20
33795;BME280;51430;52.242;21.118;2023-01-23T15:01:04;102501.52;;;2.99;97.15
33795;BME280;51430;52.242;21.118;2023-01-23T15:05:20;102503.98;;;2.93;97.38
33795;BME280;51430;52.242;21.118;2023-01-23T15:08:28;102497.14;;;2.87;97.53
33795;BME280;51430;52.242;21.118;2023-01-23T15:16:29;102508.89;;;2.85;97.77
33795;BME280;51430;52.242;21.118;2023-01-23T15:19:49;102510.42;;;2.87;98.03
33795;BME280;51430;52.242;21.118;2023-01-23T15:27:33;102508.54;;;2.85;97.88
33795;BME280;51430;52.242;21.118;2023-01-23T15:31:04;102505.98;;;2.81;98.03
33795;BME280;51430;52.242;21.118;2023-01-23T15:35:24;102510.06;;;2.88;97.96
33795;BME280;51430;52.242;21.118;2023-01-23T15:38:45;102512.81;;;2.88;97.96
33795;BME280;51430;52.242;21.118;2023-01-23T15:41:49;102513.34;;;2.86;97.85
33795;BME280;51430;52.242;21.118;2023-01-23T15:44:37;102516.88;;;2.95;97.67
33795;BME280;51430;52.242;21.118;2023-01-23T15:47:24;102518.02;;;3.03;97.15
33795;BME280;51430;52.242;21.118;2023-01-23T15:55:32;102519.27;;;2.98;96.99
33795;BME280;51430;52.242;21.118;2023-01-23T15:58:20;102517.32;;;3.04;96.94
33795;BME280;51430;52.242;21.118;2023-01-23T16:13:35;102524.84;;;2.92;97.10
33795;BME280;51430;52.242;21.118;2023-01-23T16:16:22;102524.49;;;2.91;97.29
33795;BME280;51430;52.242;21.118;2023-01-23T16:19:12;102522.84;;;3.02;96.93
33795;BME280;51430;52.242;21.118;2023-01-23T16:21:59;102524.30;;;3.10;96.60
33795;BME280;51430;52.242;21.118;2023-01-23T16:24:51;102524.28;;;3.14;96.45
33795;BME280;51430;52.242;21.118;2023-01-23T16:27:41;102525.08;;;3.18;96.30
33795;BME280;51430;52.242;21.118;2023-01-23T16:30:27;102527.31;;;3.20;96.01
33795;BME280;51430;52.242;21.118;2023-01-23T16:33:14;102528.14;;;3.23;95.83
33795;BME280;51430;52.242;21.118;2023-01-23T16:36:01;102532.23;;;3.25;95.84
33795;BME280;51430;52.242;21.118;2023-01-23T16:38:52;102531.89;;;3.26;95.73
33795;BME280;51430;52.242;21.118;2023-01-23T16:41:41;102528.64;;;3.25;95.45
33795;BME280;51430;52.242;21.118;2023-01-23T16:44:29;102528.85;;;3.20;95.34
33795;BME280;51430;52.242;21.118;2023-01-23T16:47:15;102526.65;;;3.19;95.42
33795;BME280;51430;52.242;21.118;2023-01-23T16:51:18;102532.36;;;3.15;95.59
33795;BME280;51430;52.242;21.118;2023-01-23T16:55:39;102534.35;;;3.06;96.12
33795;BME280;51430;52.242;21.118;2023-01-23T16:59:10;102534.77;;;2.97;96.58
33795;BME280;51430;52.242;21.118;2023-01-23T19:04:54;102553.10;;;3.57;93.51
33795;BME280;51430;52.242;21.118;2023-01-23T19:07:42;102547.10;;;3.40;93.97
33795;BME280;51430;52.242;21.118;2023-01-23T19:10:30;102547.42;;;3.41;93.96
33795;BME280;51430;52.242;21.118;2023-01-23T19:22:17;102558.54;;;3.17;95.09
33795;BME280;51430;52.242;21.118;2023-01-23T19:25:48;102564.84;;;3.06;95.44
33795;BME280;51430;52.242;21.118;2023-01-23T19:28:35;102570.60;;;2.99;95.91
33795;BME280;51430;52.242;21.118;2023-01-23T19:31:34;102569.41;;;3.14;95.92
33795;BME280;51430;52.242;21.118;2023-01-23T19:34:22;102567.44;;;3.22;95.78
33795;BME280;51430;52.242;21.118;2023-01-23T19:37:09;102563.91;;;3.30;95.66
33795;BME280;51430;52.242;21.118;2023-01-23T19:40:00;102564.55;;;3.34;95.41
33795;BME280;51430;52.242;21.118;2023-01-23T19:42:47;102563.14;;;3.37;95.27
33795;BME280;51430;52.242;21.118;2023-01-23T19:45:54;102566.80;;;3.33;95.21
33795;BME280;51430;52.242;21.118;2023-01-23T19:48:42;102565.75;;;3.35;95.29
33795;BME280;51430;52.242;21.118;2023-01-23T19:51:31;102566.36;;;3.42;95.09
33795;BME280;51430;52.242;21.118;2023-01-23T19:54:18;102565.83;;;3.44;94.92
33795;BME280;51430;52.242;21.118;2023-01-23T19:57:09;102571.38;;;3.40;94.80
33795;BME280;51430;52.242;21.118;2023-01-23T19:59:59;102570.84;;;3.43;94.83
33795;BME280;51430;52.242;21.118;2023-01-23T20:02:46;102568.91;;;3.45;94.73
33795;BME280;51430;52.242;21.118;2023-01-23T20:05:32;102575.30;;;3.45;94.67